Time;durP1;ratioP1;P1;durP2;ratioP2;P2;SDS_P1;SDS_P2;PMS_P1;PMS_P2;Temp;Humidity;BMP_temperature;BMP_pressure;BME280_temperature;BME280_humidity;BME280_pressure;Samples;Min_cycle;Max_cycle;Signal;HPM_P1;HPM_P2
2023/04/07 00:01:20;;;;;;;2.72;2.22;;;;;;;;;;5096175;28;20368;-85
2023/04/07 00:03:46;;;;;;;3.20;2.40;;;;;;;;;;5096527;28;20426;-85
2023/04/07 00:06:11;;;;;;;3.85;2.20;;;;;;;;;;5096543;28;20032;-85
2023/04/07 00:08:37;;;;;;;2.20;1.95;;;;;;;;;;5095397;28;20051;-85
2023/04/07 00:11:03;;;;;;;5.38;2.40;;;;;;;;;;5095744;28;20435;-86
2023/04/07 00:13:28;;;;;;;2.75;2.20;;;;;;;;;;5094613;28;20032;-86
2023/04/07 00:15:54;;;;;;;2.55;1.88;;;;;;;;;;5094811;28;20415;-85
2023/04/07 00:18:19;;;;;;;2.95;2.30;;;;;;;;;;5095938;28;20027;-85
2023/04/07 00:20:44;;;;;;;3.33;2.13;;;;;;;;;;5077375;28;20128;-85
2023/04/07 00:23:10;;;;;;;3.58;2.08;;;;;;;;;;5077466;28;20028;-86
2023/04/07 00:25:35;;;;;;;2.50;1.90;;;;;;;;;;5095401;28;20036;-85
2023/04/07 00:28:00;;;;;;;2.83;2.00;;;;;;;;;;5096861;28;20355;-86
2023/04/07 00:30:26;;;;;;;2.65;2.00;;;;;;;;;;5094686;28;20024;-86
2023/04/07 00:32:51;;;;;;;2.97;2.03;;;;;;;;;;5095748;28;20056;-86
2023/04/07 00:35:17;;;;;;;2.10;1.77;;;;;;;;;;5077129;28;20024;-86
2023/04/07 00:37:42;;;;;;;3.67;1.77;;;;;;;;;;5095311;28;20044;-86
2023/04/07 00:40:08;;;;;;;3.22;1.80;;;;;;;;;;5094167;28;20035;-85
2023/04/07 00:42:34;;;;;;;4.10;2.25;;;;;;;;;;5094540;28;20028;-86
2023/04/07 00:45:00;;;;;;;2.20;1.83;;;;;;;;;;5094595;28;20528;-84
2023/04/07 00:47:25;;;;;;;3.92;1.90;;;;;;;;;;5093835;28;20032;-85
2023/04/07 00:49:51;;;;;;;2.08;1.60;;;;;;;;;;5093609;28;20028;-85
2023/04/07 00:52:16;;;;;;;2.55;1.55;;;;;;;;;;5093394;28;20028;-86
2023/04/07 00:54:43;;;;;;;2.22;1.60;;;;;;;;;;5093787;28;20032;-86
2023/04/07 00:57:09;;;;;;;2.03;1.58;;;;;;;;;;5096010;28;20056;-86
2023/04/07 00:59:35;;;;;;;2.88;1.50;;;;;;;;;;5077101;28;20031;-87
2023/04/07 01:02:15;;;;;;;1.80;1.70;;;;;;;;;;5093511;28;20028;-86
2023/04/07 01:04:46;;;;;;;3.65;1.80;;;;;;;;;;5076696;28;20024;-87
2023/04/07 01:07:17;;;;;;;2.58;1.77;;;;;;;;;;5093511;28;20020;-86
2023/04/07 01:09:53;;;;;;;3.17;1.50;;;;;;;;;;5076395;28;20528;-88
2023/04/07 01:12:37;;;;;;;3.30;1.55;;;;;;;;;;5076952;28;20039;-88
2023/04/07 01:15:10;;;;;;;5.38;1.80;;;;;;;;;;5093374;28;20027;-87
2023/04/07 01:17:39;;;;;;;2.85;2.10;;;;;;;;;;5093357;28;20034;-87
2023/04/07 01:20:07;;;;;;;2.60;1.75;;;;;;;;;;5093345;28;20055;-87
2023/04/07 01:22:40;;;;;;;1.83;1.42;;;;;;;;;;5094862;28;20139;-87
2023/04/07 01:25:17;;;;;;;;;;;;;;;;;;5093980;28;20043;-87
2023/04/07 01:27:48;;;;;;;3.13;1.90;;;;;;;;;;5076407;28;19916;-86
2023/04/07 01:30:15;;;;;;;2.15;1.50;;;;;;;;;;5094476;28;20475;-85
2023/04/07 01:32:42;;;;;;;2.25;1.60;;;;;;;;;;5093354;28;20028;-85
2023/04/07 01:35:12;;;;;;;3.10;1.83;;;;;;;;;;5095889;28;20021;-85
2023/04/07 01:37:38;;;;;;;1.85;1.58;;;;;;;;;;5096590;28;20042;-85
2023/04/07 01:40:05;;;;;;;3.22;2.08;;;;;;;;;;5077574;28;20028;-84
2023/04/07 01:42:32;;;;;;;4.13;1.90;;;;;;;;;;5093635;28;20382;-84
2023/04/07 01:44:59;;;;;;;3.20;1.80;;;;;;;;;;5093626;28;20024;-85
2023/04/07 01:47:29;;;;;;;2.90;1.70;;;;;;;;;;5094130;28;20032;-87
2023/04/07 01:49:58;;;;;;;3.80;1.90;;;;;;;;;;5094222;28;20028;-86
2023/04/07 01:52:25;;;;;;;2.53;2.00;;;;;;;;;;5076656;28;20028;-86
2023/04/07 01:54:51;;;;;;;3.15;2.25;;;;;;;;;;5092750;28;20102;-86
2023/04/07 01:57:17;;;;;;;4.28;2.30;;;;;;;;;;5075786;28;20051;-86
2023/04/07 01:59:42;;;;;;;4.30;2.33;;;;;;;;;;5093824;28;20028;-87
2023/04/07 02:02:07;;;;;;;3.13;2.10;;;;;;;;;;5075009;28;20036;-87
2023/04/07 02:05:04;;;;;;;3.90;2.03;;;;;;;;;;5075324;28;20382;-87
2023/04/07 02:07:45;;;;;;;3.03;2.28;;;;;;;;;;5071889;28;20039;-86
2023/04/07 02:10:12;;;;;;;2.67;1.90;;;;;;;;;;5091666;28;20089;-86
2023/04/07 02:12:38;;;;;;;3.63;2.10;;;;;;;;;;5092066;28;20043;-86
2023/04/07 02:15:07;;;;;;;3.13;2.08;;;;;;;;;;5076510;28;20034;-87
2023/04/07 02:17:34;;;;;;;3.58;2.05;;;;;;;;;;5074903;28;20022;-87
2023/04/07 02:20:00;;;;;;;3.50;2.25;;;;;;;;;;5057958;28;20032;-87
2023/04/07 02:22:26;;;;;;;3.00;2.30;;;;;;;;;;5091374;28;20024;-86
2023/04/07 02:24:51;;;;;;;2.90;2.00;;;;;;;;;;5074763;28;20479;-86
2023/04/07 02:27:16;;;;;;;2.80;2.08;;;;;;;;;;5091823;28;20478;-86
2023/04/07 02:29:42;;;;;;;2.80;2.00;;;;;;;;;;5058791;28;20367;-86
2023/04/07 02:32:07;;;;;;;4.35;2.25;;;;;;;;;;5074763;28;20024;-86
2023/04/07 02:34:33;;;;;;;5.13;2.28;;;;;;;;;;5091763;28;20039;-86
2023/04/07 02:36:58;;;;;;;3.40;2.22;;;;;;;;;;5092744;28;20089;-86
2023/04/07 02:39:23;;;;;;;4.05;2.00;;;;;;;;;;5058253;28;20498;-86
2023/04/07 02:41:49;;;;;;;3.47;1.80;;;;;;;;;;5074040;28;20117;-86
2023/04/07 02:44:14;;;;;;;3.67;1.88;;;;;;;;;;5057446;28;20036;-86
2023/04/07 02:46:40;;;;;;;3.72;2.00;;;;;;;;;;5092480;28;20158;-86
2023/04/07 02:49:06;;;;;;;4.82;2.13;;;;;;;;;;5092707;28;20035;-86
2023/04/07 02:51:31;;;;;;;3.17;1.80;;;;;;;;;;5091167;28;20360;-86
2023/04/07 02:53:56;;;;;;;2.03;1.83;;;;;;;;;;5091858;28;20060;-87
2023/04/07 02:56:22;;;;;;;2.45;1.80;;;;;;;;;;5051809;28;1128799;-88
2023/04/07 02:58:47;;;;;;;2.75;1.90;;;;;;;;;;5092139;28;20071;-87
2023/04/07 03:01:13;;;;;;;4.30;2.03;;;;;;;;;;5092416;28;20497;-87
2023/04/07 03:03:38;;;;;;;4.28;2.00;;;;;;;;;;5092213;28;20036;-86
2023/04/07 03:06:04;;;;;;;3.55;1.80;;;;;;;;;;5075241;28;20105;-87
2023/04/07 03:08:29;;;;;;;3.03;1.95;;;;;;;;;;5092063;28;20042;-87
2023/04/07 03:10:55;;;;;;;2.58;1.80;;;;;;;;;;5075346;28;20538;-88
2023/04/07 03:13:21;;;;;;;2.40;1.70;;;;;;;;;;5093665;28;20032;-88
2023/04/07 03:15:46;;;;;;;2.50;1.63;;;;;;;;;;5097279;28;20078;-88
2023/04/07 03:18:12;;;;;;;3.80;1.85;;;;;;;;;;5088944;28;20032;-86
2023/04/07 03:20:37;;;;;;;3.88;1.80;;;;;;;;;;5097709;28;20080;-86
2023/04/07 03:23:03;;;;;;;2.22;1.63;;;;;;;;;;5095701;28;20024;-88
2023/04/07 03:25:28;;;;;;;3.25;1.90;;;;;;;;;;5079018;28;20043;-85
2023/04/07 03:27:54;;;;;;;2.90;1.70;;;;;;;;;;5095611;28;20028;-85
2023/04/07 03:30:19;;;;;;;4.15;1.65;;;;;;;;;;5095240;28;20098;-86
2023/04/07 03:32:45;;;;;;;2.30;1.50;;;;;;;;;;5095340;28;20024;-85
2023/04/07 03:35:10;;;;;;;3.70;1.73;;;;;;;;;;5097410;28;20494;-87
2023/04/07 03:37:36;;;;;;;3.05;1.70;;;;;;;;;;5097198;28;20028;-86
2023/04/07 03:40:02;;;;;;;2.10;1.55;;;;;;;;;;5096438;28;20098;-87
2023/04/07 03:42:27;;;;;;;3.10;1.65;;;;;;;;;;5097486;28;20028;-87
2023/04/07 03:44:52;;;;;;;2.30;1.50;;;;;;;;;;5095056;28;20086;-86
2023/04/07 03:47:18;;;;;;;2.95;1.60;;;;;;;;;;5078420;28;20065;-87
2023/04/07 03:49:43;;;;;;;5.00;1.75;;;;;;;;;;5078634;28;20437;-84
2023/04/07 03:52:09;;;;;;;3.20;1.70;;;;;;;;;;5095551;28;20039;-87
2023/04/07 03:54:34;;;;;;;2.80;1.60;;;;;;;;;;5077934;28;20032;-86
2023/04/07 03:57:01;;;;;;;2.50;1.33;;;;;;;;;;5094800;28;20056;-87
2023/04/07 03:59:26;;;;;;;4.18;1.50;;;;;;;;;;5077893;28;20119;-86
2023/04/07 04:01:52;;;;;;;2.63;1.65;;;;;;;;;;5077695;28;20107;-87
2023/04/07 04:04:17;;;;;;;3.03;1.70;;;;;;;;;;5096555;28;20055;-86
2023/04/07 04:06:42;;;;;;;3.47;1.50;;;;;;;;;;5094704;28;20035;-87
2023/04/07 04:09:08;;;;;;;2.45;1.50;;;;;;;;;;5095963;28;20027;-86
2023/04/07 04:11:33;;;;;;;2.45;1.40;;;;;;;;;;5096211;28;20031;-87
2023/04/07 04:13:59;;;;;;;1.13;1.05;;;;;;;;;;5095801;28;20429;-86
2023/04/07 04:16:24;;;;;;;3.22;1.50;;;;;;;;;;5095326;28;20039;-86
2023/04/07 04:18:50;;;;;;;2.22;1.50;;;;;;;;;;5077677;28;20098;-86
2023/04/07 04:21:15;;;;;;;2.80;1.50;;;;;;;;;;5077556;28;20103;-85
2023/04/07 04:23:40;;;;;;;2.38;1.15;;;;;;;;;;5094434;28;20090;-84
2023/04/07 04:26:06;;;;;;;4.85;1.55;;;;;;;;;;5095683;28;20107;-84
2023/04/07 04:28:31;;;;;;;1.73;1.23;;;;;;;;;;5096120;28;20085;-84
2023/04/07 04:30:56;;;;;;;4.15;1.23;;;;;;;;;;5096015;28;20022;-85
2023/04/07 04:33:22;;;;;;;2.63;1.33;;;;;;;;;;5094605;28;20028;-86
2023/04/07 04:35:47;;;;;;;2.63;1.40;;;;;;;;;;5095594;28;20028;-86
2023/04/07 04:38:13;;;;;;;2.72;1.23;;;;;;;;;;5094224;28;20120;-85
2023/04/07 04:40:38;;;;;;;3.95;1.30;;;;;;;;;;5093959;28;20454;-85
2023/04/07 04:43:08;;;;;;;2.05;1.20;;;;;;;;;;5060492;28;20027;-85
2023/04/07 04:45:33;;;;;;;3.88;1.60;;;;;;;;;;5094390;28;20035;-88
2023/04/07 04:47:59;;;;;;;3.45;1.50;;;;;;;;;;5094582;28;20085;-87
2023/04/07 04:50:24;;;;;;;2.42;1.48;;;;;;;;;;5077214;28;20028;-87
2023/04/07 04:52:50;;;;;;;3.33;1.30;;;;;;;;;;5095910;28;20478;-85
2023/04/07 04:55:15;;;;;;;3.50;1.50;;;;;;;;;;5098466;28;20032;-87
2023/04/07 04:57:40;;;;;;;2.65;1.38;;;;;;;;;;5093655;28;20052;-87
2023/04/07 05:00:06;;;;;;;2.10;1.20;;;;;;;;;;5076942;28;20023;-87
2023/04/07 05:02:32;;;;;;;2.30;1.35;;;;;;;;;;5093792;28;20062;-87
2023/04/07 05:04:57;;;;;;;2.67;1.17;;;;;;;;;;5093915;28;20056;-87
2023/04/07 05:07:23;;;;;;;3.65;1.40;;;;;;;;;;5094055;28;20460;-90
2023/04/07 05:09:48;;;;;;;2.78;1.27;;;;;;;;;;5093746;28;20449;-87
2023/04/07 05:12:14;;;;;;;2.42;1.48;;;;;;;;;;5094139;28;20024;-88
2023/04/07 05:14:40;;;;;;;3.30;1.17;;;;;;;;;;5094849;28;20028;-85
2023/04/07 05:17:05;;;;;;;2.70;1.42;;;;;;;;;;5076478;28;20482;-86
2023/04/07 05:19:31;;;;;;;2.80;1.50;;;;;;;;;;5093518;28;20024;-86
2023/04/07 05:21:57;;;;;;;1.63;1.23;;;;;;;;;;5093470;28;20504;-86
2023/04/07 05:24:24;;;;;;;2.53;1.30;;;;;;;;;;5093392;28;20028;-85
2023/04/07 05:26:50;;;;;;;3.72;1.48;;;;;;;;;;5076395;28;20032;-86
2023/04/07 05:29:15;;;;;;;5.80;1.17;;;;;;;;;;5076546;28;20035;-86
2023/04/07 05:31:41;;;;;;;4.18;1.20;;;;;;;;;;5076193;28;20023;-86
2023/04/07 05:34:06;;;;;;;2.25;1.30;;;;;;;;;;5076045;28;20494;-85
2023/04/07 05:36:34;;;;;;;3.47;1.40;;;;;;;;;;5093359;28;20085;-86
2023/04/07 05:39:00;;;;;;;1.65;1.27;;;;;;;;;;5076730;28;20039;-86
2023/04/07 05:41:25;;;;;;;3.30;1.70;;;;;;;;;;5094094;28;20036;-86
2023/04/07 05:43:51;;;;;;;2.13;1.55;;;;;;;;;;5093177;28;20031;-86
2023/04/07 05:46:16;;;;;;;2.20;1.23;;;;;;;;;;5094783;28;20039;-87
2023/04/07 05:48:42;;;;;;;3.35;1.45;;;;;;;;;;5093075;28;20028;-86
2023/04/07 05:51:07;;;;;;;3.25;1.83;;;;;;;;;;5093328;28;20035;-86
2023/04/07 05:53:32;;;;;;;1.83;1.20;;;;;;;;;;5093601;28;20060;-88
2023/04/07 05:55:58;;;;;;;2.13;1.23;;;;;;;;;;5080242;28;20052;-85
2023/04/07 05:58:23;;;;;;;2.72;1.40;;;;;;;;;;5094062;28;20040;-86
2023/04/07 06:00:49;;;;;;;2.33;1.15;;;;;;;;;;5094072;28;20062;-80
2023/04/07 06:03:15;;;;;;;2.33;1.25;;;;;;;;;;5092560;28;20032;-82
2023/04/07 06:05:42;;;;;;;7.65;1.85;;;;;;;;;;5094126;28;20032;-81
2023/04/07 06:08:09;;;;;;;4.68;1.60;;;;;;;;;;5092429;28;20028;-81
2023/04/07 06:10:34;;;;;;;3.75;1.80;;;;;;;;;;5075384;28;20032;-82
2023/04/07 06:12:59;;;;;;;3.50;1.52;;;;;;;;;;5093653;28;20394;-82
2023/04/07 06:15:25;;;;;;;4.65;1.58;;;;;;;;;;5094002;28;20024;-83
2023/04/07 06:17:50;;;;;;;2.80;1.35;;;;;;;;;;5092635;28;20170;-82
2023/04/07 06:20:16;;;;;;;4.53;1.40;;;;;;;;;;5093942;28;20039;-85
2023/04/07 06:22:42;;;;;;;3.17;1.83;;;;;;;;;;5058750;28;20111;-90
2023/04/07 06:25:08;;;;;;;8.18;1.70;;;;;;;;;;5075485;28;20106;-83
2023/04/07 06:27:34;;;;;;;6.10;2.25;;;;;;;;;;5093679;28;20034;-88
2023/04/07 06:30:00;;;;;;;9.38;2.63;;;;;;;;;;5077198;28;20032;-84
2023/04/07 06:32:25;;;;;;;7.70;2.45;;;;;;;;;;5094245;28;20024;-84
2023/04/07 06:34:51;;;;;;;8.32;2.42;;;;;;;;;;5092154;28;20089;-83
2023/04/07 06:37:16;;;;;;;13.25;2.58;;;;;;;;;;5075581;28;20471;-86
2023/04/07 06:39:42;;;;;;;6.00;2.65;;;;;;;;;;5075331;28;20031;-85
2023/04/07 06:42:08;;;;;;;9.07;2.55;;;;;;;;;;5092227;28;20111;-83
2023/04/07 06:44:33;;;;;;;7.10;2.10;;;;;;;;;;5093267;28;20483;-84
2023/04/07 06:46:58;;;;;;;7.15;2.53;;;;;;;;;;5093566;28;20040;-82
2023/04/07 06:49:24;;;;;;;5.03;2.30;;;;;;;;;;5094747;28;20052;-86
2023/04/07 06:51:49;;;;;;;9.85;2.53;;;;;;;;;;5098643;28;20025;-88
2023/04/07 06:54:15;;;;;;;5.95;2.13;;;;;;;;;;5098969;28;20493;-85
2023/04/07 06:56:41;;;;;;;5.47;2.10;;;;;;;;;;5096527;28;20101;-84
2023/04/07 06:59:06;;;;;;;4.97;2.10;;;;;;;;;;5079708;28;20382;-85
2023/04/07 07:01:32;;;;;;;4.18;2.08;;;;;;;;;;5080397;28;20028;-80
2023/04/07 07:04:00;;;;;;;6.53;2.22;;;;;;;;;;5081818;28;20055;-85
2023/04/07 07:06:26;;;;;;;6.78;2.08;;;;;;;;;;5066341;28;20020;-86
2023/04/07 07:08:55;;;;;;;4.10;1.90;;;;;;;;;;5062194;28;20032;-84
2023/04/07 07:11:20;;;;;;;6.97;2.20;;;;;;;;;;5061064;28;20035;-80
2023/04/07 07:13:46;;;;;;;5.00;1.92;;;;;;;;;;5045852;28;20024;-80
2023/04/07 07:16:12;;;;;;;6.57;2.22;;;;;;;;;;5062601;28;20030;-81
2023/04/07 07:18:37;;;;;;;5.47;1.70;;;;;;;;;;5062370;28;20114;-82
2023/04/07 07:21:03;;;;;;;4.55;2.30;;;;;;;;;;5078908;28;20020;-82
2023/04/07 07:23:29;;;;;;;6.72;2.00;;;;;;;;;;5090485;28;20036;-80
2023/04/07 07:25:54;;;;;;;6.88;1.80;;;;;;;;;;5097220;28;20023;-79
2023/04/07 07:28:20;;;;;;;3.85;1.73;;;;;;;;;;5098002;28;20498;-84
2023/04/07 07:30:46;;;;;;;4.03;1.90;;;;;;;;;;5079840;28;20359;-78
2023/04/07 07:33:11;;;;;;;5.55;1.85;;;;;;;;;;5080018;28;20170;-81
2023/04/07 07:35:36;;;;;;;6.25;1.90;;;;;;;;;;5097743;28;20154;-84
2023/04/07 07:38:02;;;;;;;5.32;2.00;;;;;;;;;;5097972;28;20111;-80
2023/04/07 07:40:28;;;;;;;4.88;1.92;;;;;;;;;;5097814;28;20162;-82
2023/04/07 07:42:53;;;;;;;3.03;1.75;;;;;;;;;;5097798;28;20027;-79
2023/04/07 07:45:18;;;;;;;4.78;1.50;;;;;;;;;;5097606;28;20050;-82
2023/04/07 07:47:44;;;;;;;5.80;1.90;;;;;;;;;;5080589;28;20036;-82
2023/04/07 07:50:10;;;;;;;9.00;1.90;;;;;;;;;;5098576;28;20027;-84
2023/04/07 07:52:35;;;;;;;3.80;1.55;;;;;;;;;;5074676;28;20032;-81
2023/04/07 07:55:01;;;;;;;5.80;1.70;;;;;;;;;;5079687;28;20036;-82
2023/04/07 07:57:26;;;;;;;7.72;1.85;;;;;;;;;;5097794;28;20044;-83
2023/04/07 07:59:52;;;;;;;5.28;2.00;;;;;;;;;;5059080;28;20052;-84
2023/04/07 08:02:18;;;;;;;3.90;1.60;;;;;;;;;;5076873;28;20043;-80
2023/04/07 08:04:43;;;;;;;4.97;1.70;;;;;;;;;;5099912;28;20035;-82
2023/04/07 08:07:10;;;;;;;6.07;1.73;;;;;;;;;;5079834;28;20481;-82
2023/04/07 08:09:36;;;;;;;7.10;2.08;;;;;;;;;;5096140;28;20020;-82
2023/04/07 08:12:02;;;;;;;5.85;1.80;;;;;;;;;;5077657;28;20494;-83
2023/04/07 08:14:28;;;;;;;2.95;1.60;;;;;;;;;;5061049;28;20500;-82
2023/04/07 08:16:54;;;;;;;6.38;1.75;;;;;;;;;;5060939;28;20037;-81
2023/04/07 08:19:19;;;;;;;5.22;1.77;;;;;;;;;;5060726;28;20031;-81
2023/04/07 08:21:45;;;;;;;4.80;1.60;;;;;;;;;;5095298;28;20086;-80
2023/04/07 08:24:10;;;;;;;8.02;2.00;;;;;;;;;;5077273;28;20032;-84
2023/04/07 08:26:36;;;;;;;4.28;1.80;;;;;;;;;;5061264;28;20024;-90
2023/04/07 08:29:01;;;;;;;4.47;2.38;;;;;;;;;;5096354;28;20047;-91
2023/04/07 08:31:27;;;;;;;7.90;1.75;;;;;;;;;;5078122;28;20024;-84
2023/04/07 08:33:56;;;;;;;6.95;2.28;;;;;;;;;;5076922;28;20043;-85
2023/04/07 08:36:25;;;;;;;4.82;1.70;;;;;;;;;;5064223;28;20088;-86
2023/04/07 08:38:50;;;;;;;5.20;1.73;;;;;;;;;;5079790;28;20063;-84
2023/04/07 08:41:26;;;;;;;5.03;1.88;;;;;;;;;;5078797;28;20059;-80
2023/04/07 08:43:56;;;;;;;4.63;1.75;;;;;;;;;;5078706;28;20588;-82
2023/04/07 08:46:24;;;;;;;12.10;2.28;;;;;;;;;;5058673;28;20040;-83
2023/04/07 08:48:51;;;;;;;3.88;1.90;;;;;;;;;;5095112;28;20420;-81
2023/04/07 08:51:36;;;;;;;3.92;1.92;;;;;;;;;;5077786;28;20484;-85
2023/04/07 08:54:13;;;;;;;12.10;1.70;;;;;;;;;;5072889;28;20038;-81
2023/04/07 08:56:42;;;;;;;21.15;1.77;;;;;;;;;;5077651;28;20277;-84
2023/04/07 08:59:12;;;;;;;3.45;1.50;;;;;;;;;;5078106;28;20036;-84
2023/04/07 09:01:38;;;;;;;2.58;1.50;;;;;;;;;;5078378;28;20024;-89
2023/04/07 09:04:03;;;;;;;6.72;1.85;;;;;;;;;;5044013;28;20075;-86
2023/04/07 09:06:30;;;;;;;4.28;1.40;;;;;;;;;;5057346;28;20116;-85
2023/04/07 09:08:57;;;;;;;5.70;1.38;;;;;;;;;;5057863;28;20025;-89
2023/04/07 09:11:22;;;;;;;4.63;1.65;;;;;;;;;;5057894;28;20099;-89
2023/04/07 09:13:49;;;;;;;2.42;1.27;;;;;;;;;;5040717;28;20390;-86
2023/04/07 09:16:15;;;;;;;4.93;1.77;;;;;;;;;;5054084;28;20025;-86
2023/04/07 09:18:41;;;;;;;3.78;1.35;;;;;;;;;;5057140;28;20032;-87
2023/04/07 09:21:07;;;;;;;3.85;1.40;;;;;;;;;;5074586;28;20053;-87
2023/04/07 09:23:39;;;;;;;1.50;1.10;;;;;;;;;;5051210;28;20028;-84
2023/04/07 09:26:26;;;;;;;2.95;1.38;;;;;;;;;;5076164;28;20394;-83
2023/04/07 09:28:58;;;;;;;7.35;1.27;;;;;;;;;;5059315;28;20394;-81
2023/04/07 09:31:50;;;;;;;9.65;1.83;;;;;;;;;;5058997;28;20394;-82
2023/04/07 09:34:33;;;;;;;3.28;1.60;;;;;;;;;;5094456;28;20486;-81
2023/04/07 09:36:58;;;;;;;2.08;1.27;;;;;;;;;;5093984;28;20032;-83
2023/04/07 09:39:25;;;;;;;3.80;1.35;;;;;;;;;;5054686;28;20024;-83
2023/04/07 09:41:50;;;;;;;4.22;1.33;;;;;;;;;;5054862;28;20023;-83
2023/04/07 09:44:17;;;;;;;4.03;1.55;;;;;;;;;;5038814;28;20029;-81
2023/04/07 09:46:58;;;;;;;1.98;1.30;;;;;;;;;;5016068;28;20472;-81
2023/04/07 09:49:24;;;;;;;3.90;2.13;;;;;;;;;;5064197;28;20035;-82
2023/04/07 09:52:06;;;;;;;4.20;1.45;;;;;;;;;;5049022;28;20032;-83
2023/04/07 09:54:38;;;;;;;2.95;1.48;;;;;;;;;;5026504;28;20029;-78
2023/04/07 09:57:06;;;;;;;3.95;1.48;;;;;;;;;;5036833;28;20499;-81
2023/04/07 09:59:33;;;;;;;2.65;1.30;;;;;;;;;;5038850;28;20029;-81
2023/04/07 10:01:59;;;;;;;3.67;1.63;;;;;;;;;;5020524;28;20028;-82
2023/04/07 10:04:25;;;;;;;4.05;1.50;;;;;;;;;;5039957;28;20028;-80
2023/04/07 10:06:53;;;;;;;2.63;1.58;;;;;;;;;;5037403;28;20036;-81
2023/04/07 10:09:19;;;;;;;4.90;1.65;;;;;;;;;;5038384;28;20483;-81
2023/04/07 10:11:45;;;;;;;3.67;1.88;;;;;;;;;;5019012;28;20033;-82
2023/04/07 10:14:11;;;;;;;2.38;1.50;;;;;;;;;;5021960;28;20037;-81
2023/04/07 10:16:37;;;;;;;3.78;1.35;;;;;;;;;;5035287;28;20064;-81
2023/04/07 10:19:03;;;;;;;5.15;1.42;;;;;;;;;;5018432;28;20155;-80
2023/04/07 10:21:28;;;;;;;5.07;1.80;;;;;;;;;;5034701;28;20127;-79
2023/04/07 10:24:19;;;;;;;5.35;1.88;;;;;;;;;;5018494;28;20033;-81
2023/04/07 10:26:46;;;;;;;3.47;2.22;;;;;;;;;;5052732;28;20052;-79
2023/04/07 10:29:13;;;;;;;4.80;2.15;;;;;;;;;;5018431;28;20063;-79
2023/04/07 10:31:40;;;;;;;3.58;2.30;;;;;;;;;;5018497;28;20252;-79
2023/04/07 10:34:05;;;;;;;7.05;2.83;;;;;;;;;;5035082;28;20142;-80
2023/04/07 10:36:30;;;;;;;6.32;2.85;;;;;;;;;;5052618;28;20179;-80
2023/04/07 10:39:08;;;;;;;6.03;2.40;;;;;;;;;;5036194;28;20052;-80
2023/04/07 10:41:37;;;;;;;9.15;2.97;;;;;;;;;;5032922;28;20033;-80
2023/04/07 10:44:04;;;;;;;10.23;2.75;;;;;;;;;;5035498;28;20036;-80
2023/04/07 10:46:52;;;;;;;8.38;3.50;;;;;;;;;;5034714;28;20032;-80
2023/04/07 10:49:17;;;;;;;9.27;3.60;;;;;;;;;;5042739;28;20043;-82
2023/04/07 10:51:43;;;;;;;6.70;3.10;;;;;;;;;;5052386;28;20025;-83
2023/04/07 10:54:21;;;;;;;7.13;3.22;;;;;;;;;;5034413;28;20036;-83
2023/04/07 10:57:02;;;;;;;7.93;2.88;;;;;;;;;;5040207;28;20128;-84
2023/04/07 10:59:31;;;;;;;6.05;2.97;;;;;;;;;;5072413;28;20103;-81
2023/04/07 11:02:23;;;;;;;7.13;3.15;;;;;;;;;;5054556;28;20387;-82
2023/04/07 11:04:48;;;;;;;8.48;4.03;;;;;;;;;;5047484;28;20118;-82
2023/04/07 11:07:15;;;;;;;9.18;4.70;;;;;;;;;;5072322;28;20064;-82
2023/04/07 11:09:41;;;;;;;9.05;5.82;;;;;;;;;;5072225;28;20032;-81
2023/04/07 11:12:07;;;;;;;11.15;6.25;;;;;;;;;;5052577;28;20494;-81
2023/04/07 11:14:36;;;;;;;13.45;6.55;;;;;;;;;;5072305;28;20082;-83
2023/04/07 11:17:02;;;;;;;10.93;6.03;;;;;;;;;;5056102;28;20507;-83
2023/04/07 11:19:27;;;;;;;16.77;6.60;;;;;;;;;;5038087;28;20033;-82
2023/04/07 11:22:15;;;;;;;13.02;7.70;;;;;;;;;;5054330;28;20131;-80
2023/04/07 11:24:41;;;;;;;13.80;6.75;;;;;;;;;;5054073;28;20112;-81
2023/04/07 11:27:12;;;;;;;14.73;6.75;;;;;;;;;;5037657;28;20048;-81
2023/04/07 11:29:37;;;;;;;13.57;6.35;;;;;;;;;;5037583;28;20035;-81
2023/04/07 11:32:03;;;;;;;11.40;6.15;;;;;;;;;;5072010;28;20024;-80
2023/04/07 11:34:30;;;;;;;14.32;6.07;;;;;;;;;;5054491;28;20051;-81
2023/04/07 11:36:58;;;;;;;7.90;4.78;;;;;;;;;;5057987;28;20027;-81
2023/04/07 11:39:32;;;;;;;9.98;5.35;;;;;;;;;;5025503;28;20079;-81
2023/04/07 11:41:58;;;;;;;7.50;4.65;;;;;;;;;;5073866;28;20032;-81
2023/04/07 11:44:25;;;;;;;8.57;4.68;;;;;;;;;;5041328;28;20039;-81
2023/04/07 11:46:56;;;;;;;9.40;4.63;;;;;;;;;;5075507;28;20150;-81
2023/04/07 11:49:26;;;;;;;11.43;4.55;;;;;;;;;;5057664;28;20016;-81
2023/04/07 11:52:03;;;;;;;6.60;3.92;;;;;;;;;;5075396;28;20055;-81
2023/04/07 11:54:59;;;;;;;7.35;4.18;;;;;;;;;;5075380;28;20067;-81
2023/04/07 11:57:26;;;;;;;5.22;3.47;;;;;;;;;;5058427;28;20053;-81
2023/04/07 12:00:08;;;;;;;6.25;3.38;;;;;;;;;;5040695;28;20052;-81
2023/04/07 12:02:33;;;;;;;6.53;3.20;;;;;;;;;;5057631;28;20069;-82
2023/04/07 12:04:59;;;;;;;5.60;2.88;;;;;;;;;;5040540;28;20040;-81
2023/04/07 12:07:24;;;;;;;5.07;3.20;;;;;;;;;;5040760;28;20029;-81
2023/04/07 12:09:50;;;;;;;6.28;3.17;;;;;;;;;;5057344;28;20078;-81
2023/04/07 12:12:25;;;;;;;5.05;2.95;;;;;;;;;;5038627;28;20123;-81
2023/04/07 12:14:51;;;;;;;5.53;2.88;;;;;;;;;;5040525;28;20360;-81
2023/04/07 12:17:23;;;;;;;7.32;2.85;;;;;;;;;;5075066;28;20542;-80
2023/04/07 12:19:49;;;;;;;5.43;2.90;;;;;;;;;;5057130;28;20020;-81
2023/04/07 12:22:15;;;;;;;4.88;2.38;;;;;;;;;;5040555;28;20048;-81
2023/04/07 12:24:40;;;;;;;4.53;2.38;;;;;;;;;;5074628;28;20032;-80
2023/04/07 12:27:06;;;;;;;3.88;2.45;;;;;;;;;;5040235;28;20122;-81
2023/04/07 12:29:32;;;;;;;4.20;2.35;;;;;;;;;;5040383;28;20159;-81
2023/04/07 12:31:58;;;;;;;6.30;2.22;;;;;;;;;;5056848;28;20489;-81
2023/04/07 12:34:23;;;;;;;5.72;2.75;;;;;;;;;;5056986;28;20383;-81
2023/04/07 12:36:49;;;;;;;4.10;2.22;;;;;;;;;;5056758;28;20036;-81
2023/04/07 12:39:15;;;;;;;3.33;2.05;;;;;;;;;;5074669;28;20041;-81
2023/04/07 12:41:41;;;;;;;5.25;1.90;;;;;;;;;;5056695;28;20036;-81
2023/04/07 12:44:06;;;;;;;2.67;2.00;;;;;;;;;;5072883;28;20033;-82
2023/04/07 12:46:32;;;;;;;2.80;1.80;;;;;;;;;;5056235;28;20032;-81
2023/04/07 12:48:57;;;;;;;2.95;1.67;;;;;;;;;;5074389;28;20051;-80
2023/04/07 12:51:23;;;;;;;4.38;1.88;;;;;;;;;;5056570;28;20021;-80
2023/04/07 12:53:48;;;;;;;4.03;2.10;;;;;;;;;;5056495;28;20040;-81
2023/04/07 12:56:14;;;;;;;2.83;1.55;;;;;;;;;;5039548;28;20082;-80
2023/04/07 12:58:40;;;;;;;3.50;1.70;;;;;;;;;;5074125;28;20495;-80
2023/04/07 13:01:06;;;;;;;3.88;1.73;;;;;;;;;;5074047;28;20028;-80
2023/04/07 13:03:31;;;;;;;3.17;1.88;;;;;;;;;;5056314;28;20028;-80
2023/04/07 13:06:00;;;;;;;2.75;1.70;;;;;;;;;;5056166;28;20036;-81
2023/04/07 13:08:26;;;;;;;1.77;1.38;;;;;;;;;;5040591;28;20056;-81
2023/04/07 13:10:52;;;;;;;2.42;1.63;;;;;;;;;;5039220;28;20398;-80
2023/04/07 13:13:17;;;;;;;4.38;1.52;;;;;;;;;;5054345;28;20040;-80
2023/04/07 13:15:42;;;;;;;2.38;1.30;;;;;;;;;;5039192;28;20098;-81
2023/04/07 13:18:08;;;;;;;2.50;1.60;;;;;;;;;;5073690;28;20039;-81
2023/04/07 13:20:33;;;;;;;2.03;1.38;;;;;;;;;;5073596;28;20488;-80
2023/04/07 13:22:59;;;;;;;2.47;1.40;;;;;;;;;;5056150;28;20048;-82
2023/04/07 13:25:24;;;;;;;1.77;1.20;;;;;;;;;;5039129;28;20033;-82
2023/04/07 13:27:49;;;;;;;1.38;1.13;;;;;;;;;;5073621;28;20029;-82
2023/04/07 13:30:15;;;;;;;2.88;1.67;;;;;;;;;;5055722;28;20029;-80
2023/04/07 13:32:40;;;;;;;3.00;1.38;;;;;;;;;;5055687;28;20024;-81
2023/04/07 13:35:06;;;;;;;1.50;1.20;;;;;;;;;;5039242;28;20439;-81
2023/04/07 13:37:32;;;;;;;1.50;1.13;;;;;;;;;;5055499;28;20372;-81
2023/04/07 13:39:57;;;;;;;1.73;1.17;;;;;;;;;;5073836;28;20488;-81
2023/04/07 13:42:23;;;;;;;1.60;1.08;;;;;;;;;;5038943;28;20520;-81
2023/04/07 13:44:49;;;;;;;1.83;1.33;;;;;;;;;;5053820;28;20111;-81
2023/04/07 13:47:18;;;;;;;3.67;1.25;;;;;;;;;;5039184;28;20475;-81
2023/04/07 13:49:48;;;;;;;1.77;1.30;;;;;;;;;;5055619;28;20029;-81
2023/04/07 13:52:13;;;;;;;1.95;1.40;;;;;;;;;;5055778;28;20028;-82
2023/04/07 13:54:39;;;;;;;1.67;1.00;;;;;;;;;;5055128;28;20499;-82
2023/04/07 13:57:04;;;;;;;1.50;1.00;;;;;;;;;;5038450;28;20044;-82
2023/04/07 13:59:30;;;;;;;2.38;1.42;;;;;;;;;;5055272;28;20040;-81
2023/04/07 14:01:56;;;;;;;2.40;1.50;;;;;;;;;;5055248;28;20067;-82
2023/04/07 14:04:21;;;;;;;1.88;1.50;;;;;;;;;;5073206;28;20059;-82
2023/04/07 14:06:47;;;;;;;4.13;1.90;;;;;;;;;;5055789;28;20078;-82
2023/04/07 14:09:12;;;;;;;4.40;2.03;;;;;;;;;;5038807;28;20032;-81
2023/04/07 14:11:37;;;;;;;6.25;2.30;;;;;;;;;;5073525;28;20039;-81
2023/04/07 14:14:03;;;;;;;5.20;1.75;;;;;;;;;;5055502;28;20029;-81
2023/04/07 14:16:29;;;;;;;2.85;2.00;;;;;;;;;;5073495;28;20498;-81
2023/04/07 14:18:55;;;;;;;3.13;1.80;;;;;;;;;;5038995;28;20027;-82
2023/04/07 14:21:20;;;;;;;4.13;2.10;;;;;;;;;;5038604;28;20036;-82
2023/04/07 14:23:45;;;;;;;5.97;2.10;;;;;;;;;;5038899;28;20526;-82
2023/04/07 14:26:11;;;;;;;3.88;1.90;;;;;;;;;;5073170;28;20024;-84
2023/04/07 14:28:38;;;;;;;3.00;1.92;;;;;;;;;;5054891;28;20479;-83
2023/04/07 14:31:03;;;;;;;6.25;2.15;;;;;;;;;;5054719;28;20390;-83
2023/04/07 14:33:28;;;;;;;7.25;2.08;;;;;;;;;;5054635;28;20033;-84
2023/04/07 14:35:54;;;;;;;5.45;2.33;;;;;;;;;;5072530;28;20115;-81
2023/04/07 14:38:24;;;;;;;3.08;1.90;;;;;;;;;;5072551;28;20044;-83
2023/04/07 14:40:52;;;;;;;3.22;1.92;;;;;;;;;;5022686;28;20065;-81
2023/04/07 14:43:18;;;;;;;8.27;1.70;;;;;;;;;;5054402;28;20025;-82